createdAt,value
2018-01-08T00:00:59.113Z,91.5
2018-01-08T00:02:00.500Z,91.9
2018-01-08T00:03:01.914Z,92.2
2018-01-08T00:04:03.310Z,91.6
2018-01-08T00:05:04.777Z,91.1
2018-01-08T00:06:06.238Z,91.7
2018-01-08T00:07:07.649Z,91.6
2018-01-08T00:08:09.045Z,92.0
2018-01-08T00:09:10.476Z,91.7
2018-01-08T00:10:11.903Z,91.8
2018-01-08T00:11:13.309Z,92.1
2018-01-08T00:12:14.746Z,91.8
2018-01-08T00:13:16.148Z,91.5
2018-01-08T00:14:17.532Z,91.1
2018-01-08T00:15:18.939Z,91.3
2018-01-08T00:16:20.308Z,91.9
2018-01-08T00:17:21.764Z,91.8
2018-01-08T00:18:23.202Z,91.9
2018-01-08T00:19:24.616Z,91.3
2018-01-08T00:20:26.000Z,91.1
2018-01-08T00:21:27.435Z,91.8
2018-01-08T00:22:28.854Z,91.8
2018-01-08T00:23:30.279Z,91.7
2018-01-08T00:24:31.668Z,91.3
2018-01-08T00:25:33.139Z,90.8
2018-01-08T00:26:34.561Z,91.7
2018-01-08T00:27:35.977Z,91.8
2018-01-08T00:28:37.410Z,91.1
2018-01-08T00:29:38.814Z,91.2
2018-01-08T00:30:40.291Z,91.7
2018-01-08T00:31:41.702Z,91.1
2018-01-08T00:32:43.129Z,91.8
2018-01-08T00:33:44.601Z,91.8
2018-01-08T00:34:45.999Z,91.9
2018-01-08T00:35:47.410Z,91.8
2018-01-08T00:36:48.820Z,91.3
2018-01-08T00:37:50.216Z,91.6
2018-01-08T00:38:51.660Z,91.0
2018-01-08T00:39:53.047Z,91.3
2018-01-08T00:40:54.486Z,91.6
2018-01-08T00:41:55.886Z,91.1
2018-01-08T00:42:57.319Z,91.2
2018-01-08T00:43:58.790Z,91.2
2018-01-08T00:45:00.246Z,91.4
2018-01-08T00:46:01.619Z,91.3
2018-01-08T00:47:03.046Z,92.0
2018-01-08T00:48:04.462Z,91.8
2018-01-08T00:49:05.819Z,91.8
2018-01-08T00:50:07.268Z,91.8
2018-01-08T00:51:08.693Z,91.8
2018-01-08T00:52:10.117Z,91.7
2018-01-08T00:53:11.510Z,91.7
2018-01-08T00:54:12.891Z,91.8
2018-01-08T00:55:14.319Z,91.9
2018-01-08T00:56:15.726Z,91.6
2018-01-08T00:57:17.119Z,91.7
2018-01-08T00:58:18.605Z,91.5
2018-01-08T00:59:20.019Z,91.8
2018-01-08T01:00:21.411Z,91.8
2018-01-08T01:01:22.792Z,91.6
2018-01-08T01:02:24.219Z,91.7
2018-01-08T01:03:25.623Z,91.6
2018-01-08T01:04:27.022Z,91.1
2018-01-08T01:05:28.443Z,91.5
2018-01-08T01:06:29.826Z,91.1
2018-01-08T01:07:31.243Z,91.8
2018-01-08T01:08:32.658Z,92.1
2018-01-08T01:09:34.069Z,91.9
2018-01-08T01:10:35.456Z,91.9
2018-01-08T01:11:36.828Z,91.8
2018-01-08T01:12:38.218Z,91.9
2018-01-08T01:13:39.632Z,91.8
2018-01-08T01:14:40.983Z,91.8
2018-01-08T01:15:42.384Z,91.8
2018-01-08T01:16:43.752Z,91.7
2018-01-08T01:17:45.124Z,92.1
2018-01-08T01:18:46.494Z,92.2
2018-01-08T01:19:47.920Z,91.8
2018-01-08T01:20:49.326Z,92.0
2018-01-08T01:21:50.731Z,92.0
2018-01-08T01:22:52.104Z,92.3
2018-01-08T01:23:53.505Z,92.3
2018-01-08T01:24:54.914Z,91.7
2018-01-08T01:25:56.345Z,92.1
2018-01-08T01:26:57.625Z,92.2
2018-01-08T01:27:58.983Z,92.0
2018-01-08T01:29:00.344Z,92.0
2018-01-08T01:30:01.698Z,92.0
2018-01-08T01:31:03.058Z,92.1
2018-01-08T01:32:04.410Z,92.4
2018-01-08T01:33:05.772Z,91.8
2018-01-08T01:34:07.136Z,91.9
2018-01-08T01:35:08.498Z,91.6
2018-01-08T01:36:09.869Z,92.3
2018-01-08T01:37:11.223Z,92.1
2018-01-08T01:38:12.587Z,92.1
2018-01-08T01:39:13.971Z,91.7
2018-01-08T01:40:15.346Z,92.0
2018-01-08T01:41:16.709Z,92.1
2018-01-08T01:42:18.064Z,92.4
2018-01-08T01:43:19.420Z,92.0
2018-01-08T01:44:20.783Z,92.1
2018-01-08T01:45:22.140Z,91.5
2018-01-08T01:46:23.502Z,91.8
2018-01-08T01:47:24.854Z,92.6
2018-01-08T01:48:26.220Z,92.2
2018-01-08T01:49:27.573Z,92.3
2018-01-08T01:50:28.926Z,92.0
2018-01-08T01:51:30.300Z,91.9
2018-01-08T01:52:31.664Z,92.2
2018-01-08T01:53:33.011Z,92.6
2018-01-08T01:54:34.366Z,92.7
2018-01-08T01:55:35.729Z,92.7
2018-01-08T01:56:37.091Z,92.1
2018-01-08T01:57:38.454Z,92.6
2018-01-08T01:58:39.797Z,91.8
2018-01-08T01:59:41.179Z,92.1
2018-01-08T02:00:42.538Z,92.1
2018-01-08T02:01:43.906Z,91.8
2018-01-08T02:02:45.262Z,92.2
2018-01-08T02:03:46.640Z,92.1
2018-01-08T02:04:48.003Z,91.9
2018-01-08T02:05:49.365Z,92.3
2018-01-08T02:06:50.760Z,92.1
2018-01-08T02:07:52.119Z,92.1
2018-01-08T02:08:53.479Z,92.1
2018-01-08T02:09:54.843Z,92.3
2018-01-08T02:10:56.205Z,92.4
2018-01-08T02:11:57.555Z,92.2
2018-01-08T02:12:58.914Z,92.2
2018-01-08T02:14:00.302Z,92.3
2018-01-08T02:15:01.656Z,92.1
2018-01-08T02:16:03.023Z,92.1
2018-01-08T02:17:04.377Z,92.2
2018-01-08T02:18:05.751Z,92.3
2018-01-08T02:19:07.107Z,92.3
2018-01-08T02:20:08.460Z,92.1
2018-01-08T02:21:09.818Z,92.0
2018-01-08T02:22:11.197Z,92.1
2018-01-08T02:23:12.555Z,92.2
2018-01-08T02:24:13.911Z,92.7
2018-01-08T02:25:15.269Z,92.3
2018-01-08T02:26:16.639Z,91.6
2018-01-08T02:27:17.998Z,92.1
2018-01-08T02:28:19.355Z,92.3
2018-01-08T02:29:20.750Z,92.0
2018-01-08T02:30:22.287Z,92.0
2018-01-08T02:31:23.654Z,92.0
2018-01-08T02:32:24.999Z,91.7
2018-01-08T02:33:26.360Z,91.9
2018-01-08T02:34:27.719Z,92.2
2018-01-08T02:35:29.077Z,92.2
2018-01-08T02:36:30.441Z,92.1
2018-01-08T02:37:31.810Z,92.1
2018-01-08T02:38:33.168Z,92.6
2018-01-08T02:39:34.526Z,91.9
2018-01-08T02:40:35.879Z,92.1
2018-01-08T02:41:37.233Z,92.6
2018-01-08T02:42:38.608Z,92.2
2018-01-08T02:43:39.951Z,92.6
2018-01-08T02:44:41.328Z,92.2
2018-01-08T02:45:42.687Z,92.7
2018-01-08T02:46:44.043Z,92.0
2018-01-08T02:47:45.409Z,92.1
2018-01-08T02:48:46.763Z,92.7
2018-01-08T02:49:48.124Z,92.4
2018-01-08T02:50:49.483Z,92.6
2018-01-08T02:51:50.859Z,92.9
2018-01-08T02:52:52.231Z,92.7
2018-01-08T02:53:53.586Z,92.6
2018-01-08T02:54:54.948Z,92.6
2018-01-08T02:55:56.304Z,92.2
2018-01-08T02:56:57.664Z,92.7
2018-01-08T02:57:59.017Z,92.5
2018-01-08T02:59:00.384Z,92.4
2018-01-08T03:00:01.756Z,92.7
2018-01-08T03:01:03.112Z,92.6
2018-01-08T03:02:04.470Z,92.4
2018-01-08T03:03:05.837Z,92.6
2018-01-08T03:04:07.207Z,92.4
2018-01-08T03:05:08.566Z,92.6
2018-01-08T03:06:09.927Z,92.5
2018-01-08T03:07:11.308Z,92.7
2018-01-08T03:08:12.680Z,92.4
2018-01-08T03:09:14.725Z,92.8
2018-01-08T03:10:16.080Z,92.6
2018-01-08T03:11:17.442Z,92.3
2018-01-08T03:12:18.800Z,92.7
2018-01-08T03:13:20.163Z,92.5
2018-01-08T03:14:21.552Z,92.7
2018-01-08T03:15:22.911Z,93.0
2018-01-08T03:16:24.266Z,92.7
2018-01-08T03:17:25.626Z,92.7
2018-01-08T03:18:26.981Z,92.4
2018-01-08T03:19:28.329Z,92.4
2018-01-08T03:20:29.692Z,92.6
2018-01-08T03:21:31.046Z,92.4
2018-01-08T03:22:32.413Z,92.7
2018-01-08T03:23:33.762Z,92.7
2018-01-08T03:24:35.121Z,92.5
2018-01-08T03:25:36.490Z,92.5
2018-01-08T03:26:37.847Z,92.4
2018-01-08T03:27:39.205Z,92.7
2018-01-08T03:28:40.564Z,92.7
2018-01-08T03:29:41.938Z,92.7
2018-01-08T03:30:43.305Z,92.7
2018-01-08T03:31:44.655Z,92.8
2018-01-08T03:32:46.072Z,92.4
2018-01-08T03:33:47.435Z,92.7
2018-01-08T03:34:48.784Z,92.3
2018-01-08T03:35:50.142Z,92.6
2018-01-08T03:36:51.499Z,92.7
2018-01-08T03:37:52.865Z,92.5
2018-01-08T03:38:54.216Z,92.1
2018-01-08T03:39:55.579Z,92.4
2018-01-08T03:40:56.933Z,92.6
2018-01-08T03:41:58.297Z,92.6
2018-01-08T03:42:59.653Z,92.5
2018-01-08T03:44:01.013Z,92.4
2018-01-08T03:45:02.405Z,92.7
2018-01-08T03:46:03.772Z,92.7
2018-01-08T03:47:05.137Z,92.4
2018-01-08T03:48:06.592Z,92.6
2018-01-08T03:49:07.950Z,92.4
2018-01-08T03:50:09.305Z,92.3
2018-01-08T03:51:10.661Z,92.7
2018-01-08T03:52:12.847Z,92.7
2018-01-08T03:53:14.206Z,92.1
2018-01-08T03:54:15.568Z,92.6
2018-01-08T03:55:16.922Z,92.7
2018-01-08T03:56:18.286Z,92.4
2018-01-08T03:57:19.642Z,92.9
2018-01-08T03:58:20.997Z,92.6
2018-01-08T03:59:22.364Z,92.4
2018-01-08T04:00:23.727Z,92.5
2018-01-08T04:01:25.082Z,92.4
2018-01-08T04:02:26.441Z,92.6
2018-01-08T04:03:27.794Z,92.4
2018-01-08T04:04:29.152Z,92.6
2018-01-08T04:05:30.510Z,92.2
2018-01-08T04:06:31.864Z,92.6
2018-01-08T04:07:33.237Z,92.1
2018-01-08T04:08:34.589Z,91.8
2018-01-08T04:09:35.953Z,92.2
2018-01-08T04:10:37.318Z,92.1
2018-01-08T04:11:38.676Z,92.1
2018-01-08T04:12:40.042Z,92.1
2018-01-08T04:13:41.389Z,92.1
2018-01-08T04:14:42.770Z,92.1
2018-01-08T04:15:44.127Z,92.1
2018-01-08T04:16:45.487Z,92.2
2018-01-08T04:17:46.857Z,92.1
2018-01-08T04:18:48.273Z,92.1
2018-01-08T04:19:49.623Z,92.2
2018-01-08T04:20:50.976Z,92.2
2018-01-08T04:21:52.338Z,92.0
2018-01-08T04:22:53.750Z,92.3
2018-01-08T04:23:55.112Z,91.8
2018-01-08T04:24:56.470Z,92.1
2018-01-08T04:25:57.831Z,92.2
2018-01-08T04:26:59.189Z,91.7
2018-01-08T04:28:00.554Z,91.8
2018-01-08T04:29:01.915Z,92.3
2018-01-08T04:30:03.295Z,92.1
2018-01-08T04:31:04.651Z,92.1
2018-01-08T04:32:06.013Z,92.2
2018-01-08T04:33:07.373Z,92.1
2018-01-08T04:34:08.733Z,91.8
2018-01-08T04:35:10.137Z,92.0
2018-01-08T04:36:11.496Z,91.7
2018-01-08T04:37:12.910Z,91.8
2018-01-08T04:38:14.274Z,91.2
2018-01-08T04:39:15.638Z,91.1
2018-01-08T04:40:17.002Z,91.7
2018-01-08T04:41:18.356Z,91.6
2018-01-08T04:42:19.709Z,91.9
2018-01-08T04:43:21.073Z,91.6
2018-01-08T04:44:22.422Z,91.9
2018-01-08T04:45:23.792Z,92.2
2018-01-08T04:46:25.144Z,91.9
2018-01-08T04:47:26.594Z,92.2
2018-01-08T04:48:27.953Z,91.8
2018-01-08T04:49:29.313Z,91.8
2018-01-08T04:50:30.672Z,91.6
2018-01-08T04:51:32.060Z,91.9
2018-01-08T04:52:33.454Z,91.7
2018-01-08T04:53:34.823Z,91.8
2018-01-08T04:54:36.183Z,91.2
2018-01-08T04:55:37.499Z,91.5
2018-01-08T04:56:38.861Z,91.2
2018-01-08T04:57:40.213Z,91.9
2018-01-08T04:58:41.570Z,91.5
2018-01-08T04:59:42.928Z,91.0
2018-01-08T05:00:44.290Z,91.4
2018-01-08T05:01:45.639Z,92.0
2018-01-08T05:02:47.003Z,91.2
2018-01-08T05:03:48.358Z,91.8
2018-01-08T05:04:49.714Z,91.7
2018-01-08T05:05:51.745Z,92.2
2018-01-08T05:06:53.109Z,92.0
2018-01-08T05:07:54.474Z,91.6
2018-01-08T05:08:55.823Z,91.7
2018-01-08T05:09:57.184Z,91.9
2018-01-08T05:10:58.544Z,92.2
2018-01-08T05:11:59.900Z,91.7
2018-01-08T05:13:01.265Z,92.1
2018-01-08T05:14:02.622Z,91.7
2018-01-08T05:15:04.007Z,92.2
2018-01-08T05:16:05.365Z,92.0
2018-01-08T05:17:06.738Z,92.1
2018-01-08T05:18:08.088Z,92.1
2018-01-08T05:19:09.445Z,92.0
2018-01-08T05:20:10.800Z,92.1
2018-01-08T05:21:12.160Z,92.1
2018-01-08T05:22:13.543Z,91.9
2018-01-08T05:23:15.212Z,92.1
2018-01-08T05:24:16.605Z,91.8
2018-01-08T05:25:17.965Z,91.3
2018-01-08T05:26:19.323Z,92.0
2018-01-08T05:27:20.679Z,92.0
2018-01-08T05:28:22.040Z,92.3
2018-01-08T05:29:23.396Z,91.7
2018-01-08T05:30:24.760Z,91.7
2018-01-08T05:31:26.119Z,92.0
2018-01-08T05:32:27.475Z,92.2
2018-01-08T05:33:28.836Z,92.1
2018-01-08T05:34:30.194Z,92.1
2018-01-08T05:35:31.569Z,92.2
2018-01-08T05:36:32.919Z,92.0
2018-01-08T05:37:34.290Z,92.2
2018-01-08T05:38:35.657Z,92.2
2018-01-08T05:39:37.018Z,92.2
2018-01-08T05:40:38.368Z,92.9
2018-01-08T05:41:39.732Z,92.1
2018-01-08T05:42:41.085Z,92.2
2018-01-08T05:43:42.450Z,92.1
2018-01-08T05:44:43.818Z,92.4
2018-01-08T05:45:45.209Z,92.1
2018-01-08T05:46:46.569Z,91.9
2018-01-08T05:47:47.925Z,92.2
2018-01-08T05:48:49.290Z,92.1
2018-01-08T05:49:50.655Z,92.1
2018-01-08T05:50:52.015Z,91.8
2018-01-08T05:51:53.381Z,91.9
2018-01-08T05:52:54.754Z,92.2
2018-01-08T05:53:56.107Z,92.2
2018-01-08T05:54:57.471Z,91.9
2018-01-08T05:55:58.829Z,91.9
2018-01-08T05:57:00.184Z,92.9
2018-01-08T05:58:01.554Z,92.7
2018-01-08T05:59:02.904Z,92.7
2018-01-08T06:00:04.271Z,92.5
2018-01-08T06:01:05.649Z,92.5
2018-01-08T06:02:07.010Z,92.2
2018-01-08T06:03:08.361Z,92.7
2018-01-08T06:04:09.722Z,92.4
2018-01-08T06:05:11.076Z,92.5
2018-01-08T06:06:12.443Z,92.5
2018-01-08T06:07:13.802Z,92.7
2018-01-08T06:08:15.247Z,93.2
2018-01-08T06:09:16.600Z,93.3
2018-01-08T06:10:17.968Z,93.0
2018-01-08T06:11:19.326Z,92.7
2018-01-08T06:12:20.700Z,92.7
2018-01-08T06:13:22.048Z,92.7
2018-01-08T06:14:23.421Z,92.4
2018-01-08T06:15:24.783Z,92.7
2018-01-08T06:16:26.144Z,92.7
2018-01-08T06:17:27.500Z,93.0
2018-01-08T06:18:28.862Z,92.5
2018-01-08T06:19:30.222Z,93.1
2018-01-08T06:20:31.582Z,92.6
2018-01-08T06:21:32.936Z,93.2
2018-01-08T06:22:34.300Z,92.9
2018-01-08T06:23:35.668Z,92.5
2018-01-08T06:24:37.025Z,92.5
2018-01-08T06:25:38.393Z,92.8
2018-01-08T06:26:39.755Z,93.1
2018-01-08T06:27:41.116Z,93.1
2018-01-08T06:28:42.486Z,93.1
2018-01-08T06:29:43.856Z,92.4
2018-01-08T06:30:45.248Z,92.7
2018-01-08T06:31:46.616Z,92.5
2018-01-08T06:32:47.987Z,92.7
2018-01-08T06:33:49.334Z,92.5
2018-01-08T06:34:50.696Z,92.7
2018-01-08T06:35:52.050Z,92.4
2018-01-08T06:36:53.437Z,92.7
2018-01-08T06:37:54.794Z,92.4
2018-01-08T06:38:56.160Z,92.6
2018-01-08T06:39:57.515Z,92.7
2018-01-08T06:40:58.870Z,92.3
2018-01-08T06:42:00.226Z,92.8
2018-01-08T06:43:01.587Z,92.4
2018-01-08T06:44:02.948Z,93.1
2018-01-08T06:45:04.310Z,93.3
2018-01-08T06:46:05.692Z,92.8
2018-01-08T06:47:07.053Z,92.5
2018-01-08T06:48:08.407Z,92.9
2018-01-08T06:49:09.769Z,93.2
2018-01-08T06:50:11.444Z,93.0
2018-01-08T06:51:12.832Z,93.0
2018-01-08T06:52:14.210Z,93.1
2018-01-08T06:53:15.594Z,93.1
2018-01-08T06:54:16.953Z,93.1
2018-01-08T06:55:18.315Z,93.1
2018-01-08T06:56:19.677Z,92.7
2018-01-08T06:57:21.030Z,93.3
2018-01-08T06:58:22.393Z,92.7
2018-01-08T06:59:23.757Z,93.0
2018-01-08T07:00:25.112Z,92.7
2018-01-08T07:01:26.472Z,92.5
2018-01-08T07:02:27.877Z,92.8
2018-01-08T07:03:29.195Z,92.8
2018-01-08T07:04:30.561Z,92.9
2018-01-08T07:05:31.919Z,92.7
2018-01-08T07:06:33.285Z,92.7
2018-01-08T07:07:34.646Z,93.0
2018-01-08T07:08:36.008Z,93.1
2018-01-08T07:09:37.383Z,93.2
2018-01-08T07:10:38.747Z,92.7
2018-01-08T07:11:40.114Z,92.7
2018-01-08T07:12:41.476Z,92.7
2018-01-08T07:13:42.839Z,92.7
2018-01-08T07:14:44.201Z,93.1
2018-01-08T07:15:45.560Z,93.1
2018-01-08T07:16:46.918Z,92.9
2018-01-08T07:17:48.280Z,92.7
2018-01-08T07:18:49.649Z,93.0
2018-01-08T07:19:51.003Z,93.0
2018-01-08T07:20:52.363Z,93.1
2018-01-08T07:21:53.722Z,92.7
2018-01-08T07:22:55.087Z,93.0
2018-01-08T07:23:56.467Z,92.9
2018-01-08T07:24:57.812Z,93.0
2018-01-08T07:25:59.175Z,93.1
2018-01-08T07:27:00.536Z,93.2
2018-01-08T07:28:01.892Z,92.7
2018-01-08T07:29:03.254Z,92.5
2018-01-08T07:30:05.598Z,92.4
2018-01-08T07:31:06.983Z,92.7
2018-01-08T07:32:08.342Z,92.4
2018-01-08T07:33:09.710Z,92.6
2018-01-08T07:34:11.065Z,92.7
2018-01-08T07:35:12.426Z,92.9
2018-01-08T07:36:13.791Z,93.3
2018-01-08T07:37:15.152Z,92.8
2018-01-08T07:38:16.550Z,92.9
2018-01-08T07:39:17.899Z,92.7
2018-01-08T07:40:19.261Z,92.7
2018-01-08T07:41:20.622Z,93.1
2018-01-08T07:42:22.003Z,92.7
2018-01-08T07:43:23.354Z,93.3
2018-01-08T07:44:24.722Z,92.8
2018-01-08T07:45:26.076Z,93.0
2018-01-08T07:46:27.442Z,93.0
2018-01-08T07:47:28.840Z,92.7
2018-01-08T07:48:30.207Z,92.7
2018-01-08T07:49:31.585Z,93.1
2018-01-08T07:50:32.949Z,93.1
2018-01-08T07:51:34.304Z,93.0
2018-01-08T07:52:35.675Z,93.0
2018-01-08T07:53:37.047Z,92.7
2018-01-08T07:54:38.410Z,92.5
2018-01-08T07:55:39.832Z,92.7
2018-01-08T07:56:41.187Z,92.7
2018-01-08T07:57:42.553Z,92.7
2018-01-08T07:58:43.909Z,92.4
2018-01-08T07:59:45.303Z,92.7
2018-01-08T08:00:46.698Z,92.5
2018-01-08T08:01:48.064Z,92.3
2018-01-08T08:02:49.420Z,92.2
2018-01-08T08:03:50.788Z,92.8
2018-01-08T08:04:52.172Z,92.7
2018-01-08T08:05:53.952Z,92.6
2018-01-08T08:06:55.338Z,92.6
2018-01-08T08:07:56.699Z,92.7
2018-01-08T08:08:58.387Z,92.7
2018-01-08T08:09:59.801Z,92.4
2018-01-08T08:11:01.205Z,92.5
2018-01-08T08:12:02.566Z,92.4
2018-01-08T08:13:04.128Z,92.3
2018-01-08T08:14:05.480Z,92.7
2018-01-08T08:15:06.849Z,92.4
2018-01-08T08:16:08.215Z,92.5
2018-01-08T08:17:09.994Z,92.6
2018-01-08T08:18:11.362Z,92.2
2018-01-08T08:19:12.730Z,92.0
2018-01-08T08:20:14.098Z,92.7
2018-01-08T08:21:15.472Z,92.5
2018-01-08T08:22:16.853Z,92.7
2018-01-08T08:23:18.233Z,92.6
2018-01-08T08:24:19.592Z,92.2
2018-01-08T08:25:20.951Z,92.1
2018-01-08T08:26:22.318Z,92.1
2018-01-08T08:27:23.692Z,92.0
2018-01-08T08:28:25.060Z,92.6
2018-01-08T08:29:26.420Z,92.9
2018-01-08T08:30:27.786Z,92.3
2018-01-08T08:31:29.152Z,92.5
2018-01-08T08:32:30.514Z,92.6
2018-01-08T08:33:31.877Z,92.6
2018-01-08T08:34:33.246Z,92.6
2018-01-08T08:35:34.607Z,92.5
2018-01-08T08:36:35.972Z,92.8
2018-01-08T08:37:37.380Z,92.6
2018-01-08T08:38:38.738Z,92.0
2018-01-08T08:39:40.099Z,92.2
2018-01-08T08:40:41.466Z,92.0
2018-01-08T08:41:42.828Z,91.9
2018-01-08T08:42:44.208Z,91.4
2018-01-08T08:43:45.571Z,92.1
2018-01-08T08:44:46.940Z,92.2
2018-01-08T08:45:48.297Z,91.8
2018-01-08T08:46:49.666Z,91.7
2018-01-08T08:47:51.023Z,92.2
2018-01-08T08:48:52.385Z,92.0
2018-01-08T08:49:53.752Z,92.1
2018-01-08T08:50:55.181Z,91.9
2018-01-08T08:51:56.524Z,92.1
2018-01-08T08:52:57.916Z,92.2
2018-01-08T08:53:59.269Z,91.7
2018-01-08T08:55:00.637Z,92.0
2018-01-08T08:56:02.002Z,91.5
2018-01-08T08:57:03.363Z,91.8
2018-01-08T08:58:04.730Z,91.7
2018-01-08T08:59:06.104Z,91.6
2018-01-08T09:00:07.469Z,92.0
2018-01-08T09:01:08.852Z,92.4
2018-01-08T09:02:10.215Z,91.9
2018-01-08T09:03:11.585Z,91.2
2018-01-08T09:04:12.970Z,91.4
2018-01-08T09:05:14.924Z,91.0
2018-01-08T09:06:16.338Z,91.9
2018-01-08T09:07:17.705Z,91.7
2018-01-08T09:08:19.065Z,91.6
2018-01-08T09:09:20.426Z,91.4
2018-01-08T09:10:21.792Z,91.4
2018-01-08T09:11:23.161Z,91.4
2018-01-08T09:12:24.535Z,91.3
2018-01-08T09:13:25.904Z,91.4
2018-01-08T09:14:27.266Z,91.8
2018-01-08T09:15:28.632Z,91.1
2018-01-08T09:16:30.002Z,91.8
2018-01-08T09:17:31.367Z,91.9
2018-01-08T09:18:32.739Z,91.4
2018-01-08T09:19:34.119Z,91.5
2018-01-08T09:20:35.483Z,90.7
2018-01-08T09:21:36.852Z,90.9
2018-01-08T09:22:38.220Z,90.7
2018-01-08T09:23:39.590Z,91.4
2018-01-08T09:24:41.011Z,91.2
2018-01-08T09:25:42.371Z,91.3
2018-01-08T09:26:43.730Z,91.1
2018-01-08T09:27:45.093Z,90.9
2018-01-08T09:28:46.457Z,91.0
2018-01-08T09:29:47.836Z,91.7
2018-01-08T09:30:49.189Z,91.0
2018-01-08T09:31:50.570Z,90.6
2018-01-08T09:32:51.925Z,90.9
2018-01-08T09:33:53.354Z,90.0
2018-01-08T09:34:54.712Z,90.5
2018-01-08T09:35:56.092Z,90.7
2018-01-08T09:36:57.462Z,91.2
2018-01-08T09:37:58.826Z,90.6
2018-01-08T09:39:00.195Z,91.2
2018-01-08T09:40:01.567Z,91.1
2018-01-08T09:41:02.934Z,90.9
2018-01-08T09:42:04.293Z,90.4
2018-01-08T09:43:05.674Z,90.5
2018-01-08T09:44:07.085Z,90.3
2018-01-08T09:45:08.399Z,90.6
2018-01-08T09:46:09.771Z,90.6
2018-01-08T09:47:11.136Z,90.1
2018-01-08T09:48:12.549Z,90.5
2018-01-08T09:49:13.994Z,90.3
2018-01-08T09:50:15.368Z,90.5
2018-01-08T09:51:16.771Z,90.1
2018-01-08T09:52:18.148Z,90.3
2018-01-08T09:53:19.526Z,90.3
2018-01-08T09:54:20.941Z,90.1
2018-01-08T09:55:22.309Z,90.3
2018-01-08T09:56:23.694Z,89.8
2018-01-08T09:57:25.062Z,90.1
2018-01-08T09:58:26.422Z,89.8
2018-01-08T09:59:27.800Z,89.6
2018-01-08T10:00:29.158Z,90.4
2018-01-08T10:01:30.515Z,89.4
2018-01-08T10:02:31.889Z,89.7
2018-01-08T10:03:33.247Z,89.5
2018-01-08T10:04:34.622Z,89.4
2018-01-08T10:05:36.005Z,89.5
2018-01-08T10:06:37.376Z,89.8
2018-01-08T10:07:38.745Z,89.8
2018-01-08T10:08:40.115Z,90.0
2018-01-08T10:09:41.488Z,89.8
2018-01-08T10:10:42.850Z,89.8
2018-01-08T10:11:44.225Z,89.3
2018-01-08T10:12:45.579Z,89.9
2018-01-08T10:13:46.948Z,89.4
2018-01-08T10:14:48.339Z,89.2
2018-01-08T10:15:49.703Z,89.4
2018-01-08T10:16:51.076Z,89.6
2018-01-08T10:17:52.442Z,89.2
2018-01-08T10:18:53.817Z,89.0
2018-01-08T10:19:55.188Z,89.4
2018-01-08T10:20:56.567Z,89.2
2018-01-08T10:21:58.044Z,88.9
2018-01-08T10:22:59.417Z,88.8
2018-01-08T10:24:00.782Z,88.8
2018-01-08T10:25:02.157Z,88.8
2018-01-08T10:26:03.517Z,88.8
2018-01-08T10:27:04.884Z,89.0
2018-01-08T10:28:06.257Z,88.5
2018-01-08T10:29:07.622Z,89.2
2018-01-08T10:30:08.986Z,88.0
2018-01-08T10:31:10.354Z,88.4
2018-01-08T10:32:11.730Z,88.4
2018-01-08T10:33:13.095Z,88.8
2018-01-08T10:34:14.467Z,88.4
2018-01-08T10:35:15.834Z,88.6
2018-01-08T10:36:17.212Z,89.0
2018-01-08T10:37:18.576Z,88.4
2018-01-08T10:38:19.958Z,88.4
2018-01-08T10:39:21.338Z,88.0
2018-01-08T10:40:22.745Z,88.0
2018-01-08T10:41:24.068Z,88.0
2018-01-08T10:42:25.443Z,87.8
2018-01-08T10:43:26.820Z,88.3
2018-01-08T10:44:28.178Z,88.0
2018-01-08T10:45:29.551Z,88.1
2018-01-08T10:46:30.923Z,88.9
2018-01-08T10:47:32.294Z,87.4
2018-01-08T10:48:33.654Z,86.7
2018-01-08T10:49:35.031Z,87.5
2018-01-08T10:50:36.410Z,87.2
2018-01-08T10:51:37.792Z,86.8
2018-01-08T10:52:39.162Z,86.6
2018-01-08T10:53:40.531Z,86.3
2018-01-08T10:54:41.894Z,86.7
2018-01-08T10:55:43.268Z,86.8
2018-01-08T10:56:44.642Z,86.7
2018-01-08T10:57:46.053Z,86.3
2018-01-08T10:58:47.426Z,85.8
2018-01-08T10:59:48.793Z,86.8
2018-01-08T11:00:50.180Z,85.9
2018-01-08T11:01:51.537Z,85.9
2018-01-08T11:02:53.020Z,86.5
2018-01-08T11:03:54.360Z,86.4
2018-01-08T11:04:55.729Z,85.8
2018-01-08T11:05:57.104Z,86.2
2018-01-08T11:06:58.478Z,86.6
2018-01-08T11:07:59.857Z,87.0
2018-01-08T11:09:01.219Z,86.8
2018-01-08T11:10:02.596Z,86.5
2018-01-08T11:11:03.958Z,86.6
2018-01-08T11:12:05.349Z,86.0
2018-01-08T11:13:06.707Z,86.3
2018-01-08T11:14:08.185Z,86.6
2018-01-08T11:15:09.586Z,86.4
2018-01-08T11:16:11.066Z,86.6
2018-01-08T11:17:13.034Z,86.4
2018-01-08T11:18:14.411Z,86.6
2018-01-08T11:19:15.784Z,85.8
2018-01-08T11:20:17.150Z,86.3
2018-01-08T11:21:18.519Z,85.5
2018-01-08T11:22:19.887Z,86.3
2018-01-08T11:23:21.247Z,85.7
2018-01-08T11:24:22.678Z,86.3
2018-01-08T11:25:24.093Z,86.3
2018-01-08T11:26:25.457Z,86.4
2018-01-08T11:27:26.827Z,86.6
2018-01-08T11:28:28.211Z,86.5
2018-01-08T11:29:29.579Z,86.4
2018-01-08T11:30:30.949Z,86.4
2018-01-08T11:31:32.314Z,86.6
2018-01-08T11:32:33.687Z,86.4
2018-01-08T11:33:35.051Z,86.3
2018-01-08T11:34:36.477Z,86.4
2018-01-08T11:35:37.808Z,86.2
2018-01-08T11:36:39.186Z,86.1
2018-01-08T11:37:40.573Z,86.6
2018-01-08T11:38:41.930Z,86.4
2018-01-08T11:39:43.301Z,86.5
2018-01-08T11:40:44.663Z,87.4
2018-01-08T11:41:46.047Z,86.0
2018-01-08T11:42:47.416Z,86.8
2018-01-08T11:43:48.789Z,86.4
2018-01-08T11:44:50.154Z,86.5
2018-01-08T11:45:51.518Z,85.9
2018-01-08T11:46:52.946Z,86.2
2018-01-08T11:47:54.329Z,86.4
2018-01-08T11:48:55.740Z,86.6
2018-01-08T11:49:57.106Z,86.3
2018-01-08T11:50:58.492Z,86.6
2018-01-08T11:51:59.860Z,87.4
2018-01-08T11:53:01.226Z,86.6
2018-01-08T11:54:02.592Z,87.0
2018-01-08T11:55:03.973Z,86.5
2018-01-08T11:56:05.356Z,86.2
2018-01-08T11:57:06.740Z,85.3
2018-01-08T11:58:08.106Z,86.2
2018-01-08T11:59:09.474Z,85.8
2018-01-08T12:00:10.854Z,86.2
2018-01-08T12:01:12.216Z,86.2
2018-01-08T12:02:13.588Z,86.3
2018-01-08T12:03:14.973Z,86.7
2018-01-08T12:04:16.333Z,86.4
2018-01-08T12:05:17.706Z,86.1
2018-01-08T12:06:19.877Z,86.6
2018-01-08T12:07:21.242Z,86.5
2018-01-08T12:08:22.616Z,86.1
2018-01-08T12:09:23.990Z,86.3
2018-01-08T12:10:25.359Z,86.6
2018-01-08T12:11:26.742Z,86.5
2018-01-08T12:12:28.116Z,86.4
2018-01-08T12:13:29.478Z,86.6
2018-01-08T12:14:30.853Z,86.4
2018-01-08T12:15:32.223Z,86.3
2018-01-08T12:16:33.596Z,86.2
2018-01-08T12:17:34.961Z,86.1
2018-01-08T12:18:36.329Z,86.4
2018-01-08T12:19:37.699Z,86.4
2018-01-08T12:20:39.055Z,87.1
2018-01-08T12:21:40.459Z,86.3
2018-01-08T12:22:41.916Z,86.5
2018-01-08T12:23:43.286Z,86.9
2018-01-08T12:24:44.658Z,86.8
2018-01-08T12:25:46.031Z,86.6
2018-01-08T12:26:47.399Z,85.9
2018-01-08T12:27:48.806Z,86.3
2018-01-08T12:28:50.184Z,85.7
2018-01-08T12:29:51.554Z,86.2
2018-01-08T12:30:53.007Z,86.3
2018-01-08T12:31:54.368Z,87.3
2018-01-08T12:32:55.756Z,86.4
2018-01-08T12:33:57.129Z,86.5
2018-01-08T12:34:58.497Z,86.5
2018-01-08T12:35:59.858Z,86.5
2018-01-08T12:37:01.246Z,86.5
2018-01-08T12:38:02.629Z,86.7
2018-01-08T12:39:04.007Z,86.4
2018-01-08T12:40:05.399Z,86.6
2018-01-08T12:41:06.806Z,86.4
2018-01-08T12:42:08.200Z,87.0
2018-01-08T12:43:09.617Z,87.2
2018-01-08T12:44:11.020Z,86.9
2018-01-08T12:45:12.410Z,85.9
2018-01-08T12:46:14.581Z,85.8
2018-01-08T12:47:15.992Z,85.8
2018-01-08T12:48:17.373Z,86.2
2018-01-08T12:49:18.747Z,86.3
2018-01-08T12:50:20.109Z,86.5
2018-01-08T12:51:21.469Z,87.2
2018-01-08T12:52:22.839Z,86.4
2018-01-08T12:53:24.284Z,86.1
2018-01-08T12:54:25.657Z,86.4
2018-01-08T12:55:27.030Z,86.2
2018-01-08T12:56:28.399Z,86.2
2018-01-08T12:57:29.764Z,86.2
2018-01-08T12:58:31.131Z,86.3
2018-01-08T12:59:32.524Z,87.4
2018-01-08T13:00:33.929Z,86.5
2018-01-08T13:01:35.327Z,86.4
2018-01-08T13:02:36.711Z,86.4
2018-01-08T13:03:38.132Z,86.8
2018-01-08T13:04:39.585Z,87.3
2018-01-08T13:05:40.974Z,87.2
2018-01-08T13:06:42.364Z,87.4
2018-01-08T13:07:43.751Z,86.1
2018-01-08T13:08:45.152Z,86.6
2018-01-08T13:09:46.616Z,86.3
2018-01-08T13:10:48.012Z,86.5
2018-01-08T13:11:49.459Z,86.3
2018-01-08T13:12:50.853Z,86.2
2018-01-08T13:13:52.318Z,86.4
2018-01-08T13:14:53.714Z,86.6
2018-01-08T13:15:55.218Z,87.0
2018-01-08T13:16:56.587Z,86.8
2018-01-08T13:17:58.047Z,86.2
2018-01-08T13:18:59.483Z,86.6
2018-01-08T13:20:00.863Z,86.5
2018-01-08T13:21:02.267Z,86.0
2018-01-08T13:22:03.702Z,86.4
2018-01-08T13:23:05.140Z,86.5
2018-01-08T13:24:06.523Z,86.6
2018-01-08T13:25:07.958Z,86.5
2018-01-08T13:26:09.379Z,86.5
2018-01-08T13:27:10.789Z,86.5
2018-01-08T13:28:12.214Z,86.3
2018-01-08T13:29:13.700Z,86.2
2018-01-08T13:30:15.099Z,85.7
2018-01-08T13:31:16.485Z,85.3
2018-01-08T13:32:17.874Z,85.8
2018-01-08T13:33:19.276Z,85.9
2018-01-08T13:34:20.714Z,85.6
2018-01-08T13:35:22.105Z,86.1
2018-01-08T13:36:23.498Z,85.4
2018-01-08T13:37:24.964Z,85.3